This is the latest recevied weather packets stored in our database for station/object DH4SBM. If no packets are shown the sender has not sent any weather packets the latest 10 day(s).
| Time | Temp. | Humidity | Pressure | Rain* | Wind** | Luminosity | Snow |
|---|---|---|---|---|---|---|---|
| 1777681538 | 11.67° C | 59% | 1025.7 hPa | 0 mm | - | 0 W/m² | - |
| 1777680938 | 11.67° C | 60% | 1025.8 hPa | 0 mm | - | 0 W/m² | - |
| 1777680338 | 12.22° C | 59% | 1025.9 hPa | 0 mm | - | 0 W/m² | - |
| 1777679738 | 12.22° C | 58% | 1025.8 hPa | 0 mm | - | 0 W/m² | - |
| 1777679137 | 12.22° C | 58% | 1025.9 hPa | 0 mm | - | 0 W/m² | - |
| 1777678538 | 12.78° C | 57% | 1025.8 hPa | 0 mm | - | 0 W/m² | - |
| 1777677938 | 12.78° C | 56% | 1025.8 hPa | 0 mm | - | 0 W/m² | - |
| 1777677338 | 12.78° C | 56% | 1025.8 hPa | 0 mm | - | 0 W/m² | - |
| 1777676738 | 12.78° C | 55% | 1025.9 hPa | 0 mm | - | 0 W/m² | - |
| 1777676138 | 12.78° C | 55% | 1025.9 hPa | 0 mm | - | 0 W/m² | - |
| 1777675538 | 13.33° C | 54% | 1025.9 hPa | 0 mm | - | 0 W/m² | - |
| 1777674938 | 13.33° C | 54% | 1025.9 hPa | 0 mm | - | 0 W/m² | - |
| 1777674343 | 13.89° C | 52% | 1026 hPa | 0 mm | - | 0 W/m² | - |
| 1777673738 | 14.44° C | 51% | 1026 hPa | 0 mm | - | 0 W/m² | - |
| 1777673138 | 15° C | 49% | 1025.9 hPa | 0 mm | - | 0 W/m² | - |
| 1777672538 | 15° C | 47% | 1025.9 hPa | 0 mm | - | 0 W/m² | - |
| 1777671938 | 15° C | 48% | 1025.7 hPa | 0 mm | - | 0 W/m² | - |
| 1777671338 | 15.56° C | 48% | 1025.7 hPa | 0 mm | - | 0 W/m² | - |
| 1777670738 | 15.56° C | 46% | 1025.9 hPa | 0 mm | - | 0 W/m² | - |
| 1777670138 | 16.11° C | 45% | 1025.8 hPa | 0 mm | - | 0 W/m² | - |
| 1777669538 | 16.11° C | 44% | 1025.9 hPa | 0 mm | - | 0 W/m² | - |
| 1777668938 | 16.67° C | 44% | 1025.8 hPa | 0 mm | - | 0 W/m² | - |
| 1777668338 | 16.67° C | 44% | 1025.9 hPa | 0 mm | - | 0 W/m² | - |
| 1777667738 | 17.22° C | 43% | 1026 hPa | 0 mm | - | 0 W/m² | - |
| 1777661136 | 20° C | 35% | 1025.3 hPa | 0 mm | - | 0 W/m² | - |
* Rain latest hour (hover to see other rain measurements)
** Current wind speed in m/s (hover to see current wind gust speed)